• Join FlightAware (Why Join?)
  • Login
  • US Flag 
10:55AM EDT


 

Airport Tracker/Info


-or-


 

Live Flight TrackerFlight Track Log ✈ ASH3770 ✈ 15-May-2013 ✈ KORD - KBDL

Flight Track Log - Related Links

Times and Time Zones

All times are in EDT time to prevent confusion due to time zone crossing. See the ASH3770 flight status page for this flight to view local times or setup timezone preferences in your user account.

Time Position Orientation Groundspeed Altitude Reporting Facility
EDT Latitude Longitude Course Direction KTS MPH feet Rate Location/Type
10:12PM 41.9833 -87.8667 71° East 162 186 1,600  Level Chicago TRACON
10:13PM 42.0000 -87.8000 71° East 225 259 3,400 2,100 Climbing Chicago TRACON
10:14PM 42.0167 -87.7167 75° East 262 302 5,600 2,160 Climbing Chicago TRACON
10:15PM 42.0333 -87.6167 77° East 302 348 7,600 2,400 Climbing Chicago TRACON
10:17PM 42.0739 -87.3433 79° East 333 383 13,600 2,100 Climbing Chicago Center
10:18PM 42.0919 -87.2033 80° East 383 441 15,000 1,560 Climbing Chicago Center
10:20PM 42.1114 -87.0575 80° East 398 458 16,800 1,920 Climbing Chicago Center
10:21PM 42.1197 -86.8692 87° East 420 483 19,000 1,980 Climbing Chicago Center
10:22PM 42.1253 -86.7061 87° East 435 501 20,900 1,680 Climbing Chicago Center
10:23PM 42.1300 -86.5464 88° East 446 513 22,500 1,440 Climbing Chicago Center
10:24PM 42.1353 -86.3750 88° East 456 525 23,900 1,320 Climbing Chicago Center
10:25PM 42.1411 -86.2014 87° East 464 534 25,300 1,320 Climbing Chicago Center
10:26PM 42.1436 -86.0217 89° East 476 548 26,700 1,260 Climbing Chicago Center
10:27PM 42.1411 -85.8203 91° East 481 554 27,900 1,080 Climbing Chicago Center
10:28PM 42.1386 -85.6358 91° East 491 565 28,900 1,140 Climbing Chicago Center
10:29PM 42.1372 -85.4497 91° East 498 573 30,300 1,200 Climbing Chicago Center
10:30PM 42.1358 -85.2661 91° East 494 568 31,400 3,120 Climbing Chicago Center
10:31PM 42.1375 -85.0583 89° East 491 565 37,000 1,200 Climbing Cleveland Center
10:32PM 42.1339 -84.8789 91° East 490 564 34,000 -900 Descending Cleveland Center
10:33PM 42.1303 -84.6936 91° East 490 564 35,300 960 Climbing Cleveland Center
10:34PM 42.1364 -84.5150 87° East 490 564 36,000 300 Climbing Cleveland Center
10:35PM 42.1675 -84.3375 77° East 484 557 36,000  Level Cleveland Center
10:36PM 42.2253 -84.1614 66° East 480 552 36,000  Level Cleveland Center
10:37PM 42.2828 -83.9822 66° East 504 580 36,000  Level Cleveland Center
10:38PM 42.3339 -83.8022 69° East 510 587 36,000  Level Cleveland Center
10:39PM 42.3461 -83.5781 86° East 524 603 36,000  Level Cleveland Center
10:40PM 42.3569 -83.3958 85° East 529 609 36,000  Level Cleveland Center
10:41PM 42.3706 -83.1744 85° East 535 616 36,000  Level Cleveland Center
10:42PM 42.3811 -82.9753 86° East 535 616 36,000  Level Cleveland Center
10:43PM 42.3936 -82.7733 85° East 535 616 36,000  Level Cleveland Center
10:44PM 42.4033 -82.5767 86° East 535 616 36,000  Level Cleveland Center
10:45PM 42.4128 -82.3747 86° East 535 616 36,000  Level Cleveland Center
10:46PM 42.4242 -82.1753 86° East 535 616 36,000 360 Level Cleveland Center
10:47PM 42.4331 -81.9756 86° East 535 616 36,800 480 Climbing Cleveland Center
10:48PM 42.4436 -81.7789 86° East 531 611 37,000 60 Climbing Cleveland Center
10:49PM 42.4517 -81.5736 87° East 531 611 37,000  Level Cleveland Center
10:50PM 42.4617 -81.3711 86° East 539 620 37,000  Level Cleveland Center
10:51PM 42.4711 -81.1686 86° East 539 620 37,000  Level Cleveland Center
10:52PM 42.4783 -80.9661 87° East 539 620 37,000  Level Cleveland Center
10:53PM 42.4872 -80.7633 87° East 539 620 37,000  Level Cleveland Center
10:54PM 42.4936 -80.5550 88° East 539 620 37,000  Level Cleveland Center
10:55PM 42.4975 -80.3719 88° East 539 620 37,000  Level Cleveland Center
10:56PM 42.5053 -80.1692 87° East 539 620 37,000  Level Cleveland Center
10:57PM 42.5128 -79.9664 87° East 541 623 37,000  Level Cleveland Center
10:58PM 42.5197 -79.7606 87° East 541 623 37,000  Level Cleveland Center
10:59PM 42.5264 -79.5550 87° East 541 623 37,000  Level Cleveland Center
11:00PM 42.5286 -79.3519 89° East 536 617 37,000  Level Cleveland Center
11:01PM 42.5347 -79.1433 88° East 536 617 37,000  Level Cleveland Center
11:02PM 42.5403 -78.9375 88° East 536 617 37,000  Level Cleveland Center
11:03PM 42.5414 -78.7317 90° East 541 623 37,000  Level Cleveland Center
11:04PM 42.5461 -78.5258 88° East 541 623 37,000  Level Cleveland Center
11:05PM 42.5486 -78.3228 89° East 541 623 37,000  Level Cleveland Center
11:06PM 42.5506 -78.1197 89° East 536 617 37,000  Level Cleveland Center
11:07PM 42.5522 -77.9139 89° East 536 617 37,000  Level Cleveland Center
11:08PM 42.5556 -77.7053 89° East 541 623 37,000 -60 Level Cleveland Center
11:09PM 42.5567 -77.4994 90° East 541 623 36,900 -780 Descending Cleveland Center
11:10PM 42.5592 -77.1511 89° East 538 619 35,000 -780 Descending Boston Center
11:11PM 42.5614 -76.9425 89° East 538 619 35,000  Level Boston Center
11:12PM 42.5611 -76.7339 90° East 543 625 35,000  Level Boston Center
11:13PM 42.5606 -76.5194 90° East 554 638 35,000  Level Boston Center
11:14PM 42.5617 -76.3136 90° East 554 638 35,000 -60 Level Boston Center
11:15PM 42.5594 -76.1247 91° East 554 638 34,900 -780 Descending Boston Center
11:16PM 42.5578 -75.9131 91° East 554 638 33,500 -1,500 Descending Boston Center
11:17PM 42.5389 -75.7089 97° East 554 638 32,000 -1,620 Descending Boston Center
11:18PM 42.5197 -75.4994 97° East 554 638 30,300 -1,920 Descending Boston Center
11:19PM 42.5019 -75.2958 97° East 559 643 28,200 -2,040 Descending Boston Center
11:20PM 42.4839 -75.1006 97° East 546 628 26,300 -2,100 Descending Boston Center
11:21PM 42.4633 -74.9056 98° East 533 613 24,000 -2,400 Descending Boston Center
11:22PM 42.4464 -74.7164 97° East 521 600 21,500 -2,100 Descending Boston Center
11:24PM 42.4197 -74.4678 98° East 509 586 19,000 -1,080 Descending Boston Center
11:25PM 42.3986 -74.2478 97° East 498 573 19,000 -300 Level Boston Center
11:26PM 42.3783 -74.0703 99° East 486 559 18,400 -1,320 Descending Boston Center
11:27PM 42.3619 -73.8956 97° East 474 545 16,400 -1,920 Descending Boston Center
11:27PM 42.3561 -73.8478 99° East 483 556 16,000 -1,560 Descending Boston Center
11:28PM 42.3450 -73.7294 97° East 471 542 14,900 -1,500 Descending Boston Center
11:29PM 42.3281 -73.5803 99° East 445 512 13,500 -1,500 Descending Boston Center
11:30PM 42.3086 -73.4197 99° East 438 504 12,000 -1,320 Descending Boston Center
11:31PM 42.2911 -73.2653 99° East 419 482 11,000 -960 Descending Boston Center
11:32PM 42.2628 -73.1386 107° East 353 406 10,100 -900 Descending Boston Center
11:32PM 42.2628 -73.1217 90° East 365 420 9,900 -1,740 Descending Boston Center
11:33PM 42.2344 -73.0094 109° East 328 377 8,400 -1,740 Descending Boston Center
11:33PM 42.2344 -72.9953 90° East 328 377 8,200 -1,680 Descending Boston Center
11:34PM 42.2097 -72.8997 109° East 315 362 6,700 -1,920 Descending Boston Center
11:34PM 42.2058 -72.8689 100° East 318 366 6,300 -1,560 Descending Boston Center
11:35PM 42.1872 -72.7903 108° East 308 354 5,100 -1,320 Descending Boston Center
11:36PM 42.1667 -72.6867 105° East 284 327 4,000 -900 Descending Boston Center
11:36PM 42.1647 -72.6725 100° East 288 331 4,000 -840 Level Boston Center
11:37PM 42.1397 -72.6108 119° Southeast 220 253 3,200 -360 Descending Boston Center
11:38PM 42.1044 -72.5519 129° Southeast 202 232 3,400 120 Climbing Boston Center
11:38PM 42.0961 -72.5464 154° Southeast 205 236 3,400 -480 Level Boston Center
11:39PM 42.0544 -72.5322 166° South 193 222 3,000 -720 Descending Boston Center
11:39PM 42.0356 -72.5547 222° Southwest 174 200 2,700 -600 Descending Boston Center
11:40PM 42.0211 -72.5797 232° Southwest 171 197 2,400 -720 Descending Boston Center
11:40PM 42.0106 -72.5967 230° Southwest 143 165 2,000 -840 Descending Boston Center
11:41PM 41.9939 -72.6161 221° Southwest 139 160 1,600 -780 Descending Boston Center
11:42PM 41.9667 -72.6494 222° Southwest 134 154 900 -720 Descending Boston Center
11:44PM 41.9333 -72.6833 225° Southwest  Level FlightAware Approximate
11:51PM 41.9392 -72.6834 225° Southwest  Level Estimated
11:52PM 41.9333 -72.6833 225° Southwest  Level FlightAware Approximate